Time;durP1;ratioP1;P1;durP2;ratioP2;P2;SDS_P1;SDS_P2;PMS_P1;PMS_P2;Temp;Humidity;BMP_temperature;BMP_pressure;BME280_temperature;BME280_humidity;BME280_pressure;Samples;Min_cycle;Max_cycle;Signal;HPM_P1;HPM_P2
2023/12/06 00:02:27;;;;;;;34.47;17.45;;;;;;;1.65;77.56;98789.16;5013398;28;20068;-84
2023/12/06 00:05:13;;;;;;;22.73;12.85;;;;;;;1.59;78.02;98779.41;5020995;28;20045;-84
2023/12/06 00:07:58;;;;;;;21.67;9.00;;;;;;;1.72;77.53;98783.97;5014649;28;20064;-84
2023/12/06 00:10:44;;;;;;;15.38;8.57;;;;;;;1.63;76.59;98754.47;4999479;28;20057;-85
2023/12/06 00:13:36;;;;;;;25.05;13.73;;;;;;;1.77;77.05;98777.22;5018447;28;20557;-86
2023/12/06 00:16:22;;;;;;;19.10;10.55;;;;;;;1.84;76.75;98770.22;5025238;28;20045;-87
2023/12/06 00:19:08;;;;;;;19.30;11.48;;;;;;;1.69;76.32;98751.09;5021280;28;20060;-85
2023/12/06 00:21:54;;;;;;;20.98;11.93;;;;;;;1.93;76.43;98762.25;5012551;28;20387;-83
2023/12/06 00:24:40;;;;;;;21.83;10.30;;;;;;;1.90;76.67;98747.72;5017266;28;20056;-85
2023/12/06 00:27:25;;;;;;;14.63;7.78;;;;;;;1.94;76.65;98756.00;4997002;28;20113;-85
2023/12/06 00:30:11;;;;;;;20.58;12.10;;;;;;;1.96;76.80;98765.31;5010427;28;20403;-84
2023/12/06 00:32:57;;;;;;;22.33;11.57;;;;;;;2.00;76.20;98757.91;5021811;28;20049;-83
2023/12/06 00:35:45;;;;;;;27.00;13.20;;;;;;;1.90;76.65;98757.38;5024853;28;20049;-85
2023/12/06 00:38:34;;;;;;;17.20;8.95;;;;;;;1.96;76.92;98754.03;5015344;28;20057;-83
2023/12/06 00:41:24;;;;;;;27.85;13.05;;;;;;;1.98;76.81;98758.09;5022098;28;20057;-86
2023/12/06 00:44:10;;;;;;;22.08;7.13;;;;;;;2.04;76.17;98759.16;5023640;28;20049;-85
2023/12/06 00:46:55;;;;;;;23.15;12.27;;;;;;;1.94;76.88;98756.00;5021957;28;20065;-86
2023/12/06 00:49:41;;;;;;;20.63;11.70;;;;;;;1.98;76.23;98762.53;5014818;28;20053;-84
2023/12/06 00:52:27;;;;;;;21.55;11.32;;;;;;;2.06;75.89;98765.81;5019219;28;20072;-84
2023/12/06 00:55:14;;;;;;;14.80;9.43;;;;;;;2.08;75.97;98769.09;5014903;28;20104;-85
2023/12/06 00:58:00;;;;;;;19.60;10.38;;;;;;;2.00;76.74;98765.75;5016711;28;20053;-84
2023/12/06 01:00:46;;;;;;;24.70;12.80;;;;;;;1.94;76.41;98763.88;5018182;28;20053;-84
2023/12/06 01:03:32;;;;;;;28.92;14.00;;;;;;;1.88;77.57;98765.44;5017748;28;20523;-85
2023/12/06 01:06:17;;;;;;;15.90;8.75;;;;;;;1.82;77.30;98742.59;5018814;28;20048;-86
2023/12/06 01:09:06;;;;;;;26.90;13.70;;;;;;;1.89;76.45;98738.25;5025102;28;20060;-85
2023/12/06 01:11:52;;;;;;;25.85;12.60;;;;;;;1.84;76.98;98759.75;5024517;28;20392;-85
2023/12/06 01:14:39;;;;;;;24.90;12.95;;;;;;;1.74;77.56;98746.13;5025745;28;20068;-85
2023/12/06 01:17:24;;;;;;;22.15;12.65;;;;;;;1.72;76.95;98739.44;5024439;28;20392;-85
2023/12/06 01:20:10;;;;;;;23.77;13.18;;;;;;;1.68;78.08;98767.81;5020345;28;20057;-86
2023/12/06 01:22:55;;;;;;;33.22;14.23;;;;;;;1.60;78.44;98765.31;5014058;28;20506;-84
2023/12/06 01:25:41;;;;;;;43.47;20.17;;;;;;;1.30;78.75;98764.53;5019354;28;20073;-83
2023/12/06 01:28:29;;;;;;;52.58;23.60;;;;;;;1.09;79.70;98754.78;5019238;28;20049;-87
2023/12/06 01:31:15;;;;;;;46.58;25.42;;;;;;;0.98;80.54;98745.56;5016219;28;20048;-83
2023/12/06 01:34:02;;;;;;;43.15;22.17;;;;;;;0.78;81.02;98724.34;5016665;28;20049;-83
2023/12/06 01:36:48;;;;;;;37.03;18.30;;;;;;;0.78;81.58;98721.72;5019413;28;20057;-83
2023/12/06 01:39:33;;;;;;;40.95;20.38;;;;;;;0.87;81.12;98727.69;5017324;28;20053;-84
2023/12/06 01:42:18;;;;;;;33.30;17.08;;;;;;;0.94;80.95;98728.63;5018583;28;20411;-83
2023/12/06 01:45:05;;;;;;;27.23;13.88;;;;;;;1.22;80.61;98718.31;5016565;28;20052;-84
2023/12/06 01:47:52;;;;;;;28.17;14.85;;;;;;;1.27;79.94;98721.19;5010437;28;20399;-83
2023/12/06 01:50:39;;;;;;;25.98;14.23;;;;;;;1.28;80.03;98709.72;5024204;28;20060;-85
2023/12/06 01:53:24;;;;;;;33.33;15.57;;;;;;;1.29;80.11;98705.31;5016630;28;20399;-84
2023/12/06 01:56:10;;;;;;;29.95;14.93;;;;;;;1.30;79.87;98705.13;5016871;28;20049;-84
2023/12/06 01:58:57;;;;;;;27.00;12.85;;;;;;;1.37;79.84;98703.38;5018000;28;20057;-84
2023/12/06 02:01:43;;;;;;;25.73;12.75;;;;;;;1.43;80.14;98698.44;5016245;28;20388;-86
2023/12/06 02:04:29;;;;;;;17.73;9.98;;;;;;;1.43;79.71;98691.38;5022372;28;20049;-86
2023/12/06 02:07:15;;;;;;;17.42;9.52;;;;;;;1.57;79.56;98698.41;5008495;28;20045;-83
2023/12/06 02:10:02;;;;;;;24.83;11.95;;;;;;;1.55;79.15;98689.91;5015852;28;20061;-83
2023/12/06 02:12:47;;;;;;;32.30;17.58;;;;;;;1.52;80.06;98692.91;5028507;28;20056;-84
2023/12/06 02:15:34;;;;;;;38.63;18.38;;;;;;;1.26;79.90;98682.13;5021810;28;20057;-85
2023/12/06 02:18:20;;;;;;;36.13;19.33;;;;;;;1.09;81.23;98682.31;5015179;28;20057;-84
2023/12/06 02:21:06;;;;;;;37.95;21.05;;;;;;;0.89;81.53;98689.91;5008956;28;20056;-86
2023/12/06 02:23:53;;;;;;;51.95;26.42;;;;;;;0.71;81.54;98676.34;4996163;28;20048;-85
2023/12/06 02:26:38;;;;;;;38.00;19.95;;;;;;;0.46;82.89;98668.75;4997927;28;20053;-84
2023/12/06 02:29:25;;;;;;;41.70;21.02;;;;;;;0.45;82.91;98685.44;5013353;28;20052;-84
2023/12/06 02:32:10;;;;;;;40.72;21.65;;;;;;;0.42;83.45;98688.41;4996437;28;20049;-85
2023/12/06 02:34:56;;;;;;;47.00;20.80;;;;;;;0.39;83.41;98694.00;5013164;28;20057;-84
2023/12/06 02:37:42;;;;;;;42.50;21.70;;;;;;;0.39;84.18;98693.19;5012850;28;20064;-83
2023/12/06 02:40:31;;;;;;;42.83;21.15;;;;;;;0.33;84.63;98689.47;4998908;28;20799;-84
2023/12/06 02:43:16;;;;;;;45.17;21.42;;;;;;;0.28;84.21;98670.88;5007847;28;20057;-84
2023/12/06 02:46:02;;;;;;;43.83;22.35;;;;;;;0.24;84.17;98680.06;5010094;28;20056;-85
2023/12/06 02:48:47;;;;;;;53.70;22.42;;;;;;;0.24;84.14;98672.22;5015657;28;20388;-84
2023/12/06 02:51:33;;;;;;;49.97;23.10;;;;;;;0.16;84.20;98667.09;5015361;28;20056;-85
2023/12/06 02:54:18;;;;;;;64.50;27.77;;;;;;;0.14;83.98;98661.22;5015186;28;20595;-86
2023/12/06 02:57:04;;;;;;;57.10;25.20;;;;;;;0.22;84.41;98676.84;4993787;28;20049;-84
2023/12/06 02:59:49;;;;;;;57.30;28.25;;;;;;;0.09;84.37;98660.94;5013861;28;20129;-85
2023/12/06 03:02:35;;;;;;;40.08;21.10;;;;;;;0.17;85.10;98679.16;5013881;28;20060;-86
2023/12/06 03:05:22;;;;;;;44.10;21.02;;;;;;;0.09;84.87;98674.00;4993742;28;20061;-85
2023/12/06 03:08:08;;;;;;;42.08;20.38;;;;;;;0.12;84.87;98681.47;5026855;28;20057;-85
2023/12/06 03:10:54;;;;;;;45.50;22.65;;;;;;;-0.06;85.18;98642.63;5021091;28;20399;-85
2023/12/06 03:13:39;;;;;;;39.28;20.45;;;;;;;-0.05;85.36;98646.84;4993138;28;20068;-85
2023/12/06 03:16:25;;;;;;;35.72;19.73;;;;;;;0.16;85.25;98672.31;5020480;28;20068;-86
2023/12/06 03:19:11;;;;;;;33.55;19.40;;;;;;;0.08;84.99;98654.09;4992810;28;20427;-86
2023/12/06 03:21:56;;;;;;;37.47;20.30;;;;;;;0.18;85.25;98665.91;5006863;28;20057;-85
2023/12/06 03:24:43;;;;;;;41.20;21.63;;;;;;;0.16;84.57;98667.09;5006882;28;20057;-86
2023/12/06 03:27:29;;;;;;;47.33;23.10;;;;;;;0.15;85.02;98665.44;5006885;28;20057;-85
2023/12/06 03:30:14;;;;;;;41.03;21.17;;;;;;;0.19;84.95;98666.75;4992756;28;20072;-86
2023/12/06 03:32:59;;;;;;;42.20;22.27;;;;;;;0.18;84.99;98670.31;5007068;28;20053;-85
2023/12/06 03:35:45;;;;;;;39.58;21.20;;;;;;;0.25;84.78;98666.00;5006490;28;20052;-85
2023/12/06 03:38:31;;;;;;;40.95;20.55;;;;;;;0.21;84.67;98667.34;5005911;28;20053;-85
2023/12/06 03:41:16;;;;;;;43.80;20.58;;;;;;;0.15;84.64;98663.63;5005758;28;20052;-85
2023/12/06 03:44:02;;;;;;;38.33;20.77;;;;;;;0.11;85.24;98653.72;5006433;28;20045;-86
2023/12/06 03:46:48;;;;;;;40.50;21.00;;;;;;;0.10;84.94;98654.72;5013347;28;20053;-85
2023/12/06 03:49:34;;;;;;;38.65;19.88;;;;;;;0.01;85.37;98653.16;5005458;28;20044;-85
2023/12/06 03:52:21;;;;;;;42.08;20.98;;;;;;;0.07;85.36;98662.91;4992551;28;20394;-85
2023/12/06 03:55:07;;;;;;;42.05;21.63;;;;;;;-0.01;85.44;98667.19;4991781;28;20049;-85
2023/12/06 03:57:52;;;;;;;43.85;21.42;;;;;;;-0.05;85.39;98665.94;5005678;28;20045;-85
2023/12/06 04:00:38;;;;;;;39.40;20.42;;;;;;;-0.10;85.16;98668.25;4992248;28;20044;-85
2023/12/06 04:03:23;;;;;;;40.35;20.27;;;;;;;-0.27;85.93;98651.09;5005677;28;20060;-85
2023/12/06 04:06:09;;;;;;;37.80;19.80;;;;;;;-0.26;85.78;98670.97;5005516;28;20129;-85
2023/12/06 04:08:55;;;;;;;44.72;19.85;;;;;;;-0.27;86.15;98645.88;4991137;28;20044;-86
2023/12/06 04:11:40;;;;;;;41.53;21.90;;;;;;;-0.29;85.41;98659.06;5006257;28;20400;-87
2023/12/06 04:14:25;;;;;;;38.88;20.50;;;;;;;-0.35;86.18;98649.31;5005603;28;20064;-86
2023/12/06 04:17:12;;;;;;;47.53;21.02;;;;;;;-0.33;85.80;98663.03;5006254;28;20073;-85
2023/12/06 04:19:58;;;;;;;39.78;19.95;;;;;;;-0.38;86.23;98654.09;5005193;28;20052;-85
2023/12/06 04:22:44;;;;;;;43.38;22.08;;;;;;;-0.35;86.30;98645.91;4991058;28;20046;-85
2023/12/06 04:25:30;;;;;;;43.63;21.95;;;;;;;-0.47;86.46;98638.50;4992295;28;20061;-86
2023/12/06 04:28:15;;;;;;;39.50;21.00;;;;;;;-0.38;86.57;98654.09;5006446;28;20510;-87
2023/12/06 04:31:01;;;;;;;49.13;22.02;;;;;;;-0.37;86.94;98645.28;5004909;28;20052;-86
2023/12/06 04:33:47;;;;;;;47.22;20.30;;;;;;;-0.36;86.55;98649.50;5015151;28;20057;-86
2023/12/06 04:36:32;;;;;;;51.30;23.60;;;;;;;-0.42;86.46;98642.38;5008417;28;20052;-85
2023/12/06 04:39:17;;;;;;;41.28;21.02;;;;;;;-0.24;86.90;98645.50;5008304;28;20121;-83
2023/12/06 04:42:06;;;;;;;43.80;21.42;;;;;;;-0.29;86.14;98630.34;5008596;28;20069;-84
2023/12/06 04:44:52;;;;;;;41.85;21.85;;;;;;;-0.06;85.85;98642.63;5015587;28;20519;-84
2023/12/06 04:47:38;;;;;;;43.22;21.90;;;;;;;-0.01;86.04;98654.13;4996228;28;20045;-85
2023/12/06 04:50:30;;;;;;;56.53;25.08;;;;;;;0.20;86.03;98635.19;5009372;28;20053;-83
2023/12/06 04:53:15;;;;;;;49.90;22.23;;;;;;;0.46;85.54;98658.28;5029355;28;20056;-84
2023/12/06 04:56:00;;;;;;;;;;;;;;;0.77;84.50;98659.13;5023101;28;20506;-83
2023/12/06 04:58:51;;;;;;;20.70;10.80;;;;;;;1.10;83.99;98649.13;5021002;28;19917;-83
2023/12/06 05:01:38;;;;;;;15.73;9.52;;;;;;;1.46;82.88;98645.69;5022060;28;20507;-83
2023/12/06 05:04:24;;;;;;;24.95;13.90;;;;;;;1.67;81.55;98643.09;5036230;28;20514;-82
2023/12/06 05:07:10;;;;;;;26.73;15.40;;;;;;;1.79;80.19;98653.91;5015610;28;20053;-82
2023/12/06 05:09:55;;;;;;;29.23;13.90;;;;;;;1.76;80.39;98662.13;5015455;28;20048;-82
2023/12/06 05:12:40;;;;;;;22.15;12.70;;;;;;;1.86;79.76;98665.25;5015238;28;20064;-81
2023/12/06 05:15:26;;;;;;;23.80;12.00;;;;;;;1.91;79.91;98662.03;5015713;28;20049;-83
2023/12/06 05:18:10;;;;;;;25.50;13.77;;;;;;;1.72;80.87;98656.44;5016096;28;20052;-82
2023/12/06 05:20:56;;;;;;;25.88;13.15;;;;;;;1.73;80.88;98649.41;5028755;28;20069;-82
2023/12/06 05:23:42;;;;;;;25.30;12.63;;;;;;;1.85;80.97;98672.28;5016041;28;20426;-82
2023/12/06 05:26:28;;;;;;;27.80;14.32;;;;;;;1.67;80.60;98671.09;5029033;28;20056;-83
2023/12/06 05:29:13;;;;;;;27.20;12.85;;;;;;;1.46;80.56;98664.81;5007756;28;20133;-83
2023/12/06 05:31:59;;;;;;;35.22;17.08;;;;;;;1.23;80.82;98669.41;5028835;28;20057;-82
2023/12/06 05:34:44;;;;;;;30.88;17.00;;;;;;;1.00;81.64;98665.06;5016066;28;20105;-84
2023/12/06 05:37:30;;;;;;;32.35;18.25;;;;;;;0.77;82.46;98670.41;5014912;28;20057;-82
2023/12/06 05:40:17;;;;;;;31.05;16.70;;;;;;;0.73;83.20;98668.34;5015455;28;20053;-81
2023/12/06 05:43:02;;;;;;;38.50;21.35;;;;;;;0.69;83.11;98673.13;5000282;28;20053;-83
2023/12/06 05:45:52;;;;;;;40.65;20.80;;;;;;;0.50;83.07;98668.41;5022249;28;20109;-86
2023/12/06 05:48:48;;;;;;;42.13;21.58;;;;;;;0.51;84.04;98681.31;5008948;28;20053;-85
2023/12/06 05:51:34;;;;;;;46.47;24.65;;;;;;;0.37;84.19;98666.41;5007122;28;20052;-86
2023/12/06 05:54:20;;;;;;;42.70;22.17;;;;;;;0.55;84.15;98676.53;5000870;28;20052;-85
2023/12/06 05:57:06;;;;;;;38.72;20.40;;;;;;;0.73;84.25;98679.63;5009056;28;20057;-87
2023/12/06 05:59:51;;;;;;;31.60;15.85;;;;;;;0.69;83.70;98660.06;5017253;28;20053;-85
2023/12/06 06:02:37;;;;;;;39.30;18.55;;;;;;;0.80;83.69;98671.84;5014851;28;20061;-84
2023/12/06 06:05:23;;;;;;;35.33;17.25;;;;;;;0.87;83.24;98665.72;5007347;28;20056;-85
2023/12/06 06:08:08;;;;;;;33.53;17.05;;;;;;;1.00;82.52;98682.59;4993397;28;20507;-86
2023/12/06 06:10:54;;;;;;;39.90;19.77;;;;;;;0.99;83.18;98670.50;5014172;28;20399;-85
2023/12/06 06:13:40;;;;;;;36.25;17.35;;;;;;;1.11;83.21;98679.53;5013315;28;20057;-84
2023/12/06 06:16:25;;;;;;;37.75;18.08;;;;;;;1.03;82.57;98679.59;5010316;28;20044;-84
2023/12/06 06:19:11;;;;;;;34.53;18.05;;;;;;;0.99;82.23;98679.16;5013798;28;20048;-84
2023/12/06 06:21:57;;;;;;;36.45;19.00;;;;;;;1.10;82.19;98693.59;5022346;28;20053;-86
2023/12/06 06:24:43;;;;;;;27.48;14.07;;;;;;;1.21;83.06;98676.63;5022502;28;20068;-84
2023/12/06 06:27:28;;;;;;;30.23;14.95;;;;;;;1.49;81.92;98682.78;5008878;28;20053;-85
2023/12/06 06:30:14;;;;;;;26.92;13.20;;;;;;;1.73;81.28;98694.75;5015836;28;20052;-85
2023/12/06 06:32:59;;;;;;;22.90;13.10;;;;;;;1.78;80.73;98675.84;5018996;28;20125;-84
2023/12/06 06:35:45;;;;;;;27.00;13.13;;;;;;;2.02;80.61;98695.63;5019856;28;20125;-85
2023/12/06 06:38:31;;;;;;;21.92;11.82;;;;;;;2.15;79.75;98693.13;5019292;28;20049;-83
2023/12/06 06:41:16;;;;;;;23.70;12.70;;;;;;;2.26;78.63;98697.88;5015416;28;20041;-84
2023/12/06 06:44:02;;;;;;;27.63;13.80;;;;;;;2.35;78.47;98695.94;5021103;28;20052;-84
2023/12/06 06:46:47;;;;;;;23.08;12.70;;;;;;;2.41;78.90;98699.59;5021882;28;20049;-85
2023/12/06 06:49:35;;;;;;;28.05;13.25;;;;;;;2.43;78.25;98687.91;5034300;28;20073;-85
2023/12/06 06:52:21;;;;;;;24.52;12.13;;;;;;;2.57;77.43;98696.69;5019809;28;20044;-84
2023/12/06 06:55:08;;;;;;;17.08;8.65;;;;;;;2.61;77.35;98697.94;5028837;28;20057;-83
2023/12/06 06:57:56;;;;;;;21.48;12.05;;;;;;;2.68;nan;98703.22;5020274;28;20049;-84
2023/12/06 07:00:43;;;;;;;52.78;17.05;;;;;;;2.72;76.93;98701.81;5013276;28;20045;-85
2023/12/06 07:03:32;;;;;;;31.13;14.93;;;;;;;2.86;76.91;98702.75;5006339;28;20053;-85
2023/12/06 07:06:18;;;;;;;20.83;10.80;;;;;;;2.88;76.78;98705.97;5019554;28;20073;-84
2023/12/06 07:09:04;;;;;;;20.63;10.95;;;;;;;2.95;76.88;98710.28;5013900;28;20053;-84
2023/12/06 07:11:49;;;;;;;21.13;11.00;;;;;;;3.04;76.63;98694.34;5026587;28;20072;-84
2023/12/06 07:14:35;;;;;;;23.58;11.98;;;;;;;3.13;75.92;98709.75;4991921;28;20072;-85
2023/12/06 07:17:21;;;;;;;22.25;8.60;;;;;;;3.25;75.18;98713.44;5005484;28;20061;-85
2023/12/06 07:20:08;;;;;;;24.75;13.73;;;;;;;3.23;75.50;98699.72;5019228;28;20045;-84
2023/12/06 07:22:54;;;;;;;22.00;9.90;;;;;;;3.43;73.98;98712.13;5013700;28;20053;-85
2023/12/06 07:25:40;;;;;;;51.47;24.60;;;;;;;3.56;74.37;98701.66;5005490;28;20056;-83
2023/12/06 07:28:26;;;;;;;24.73;13.25;;;;;;;3.77;73.04;98699.91;5012287;28;20040;-83
2023/12/06 07:31:12;;;;;;;37.53;17.77;;;;;;;4.01;73.06;98707.25;5013457;28;20056;-84
2023/12/06 07:33:57;;;;;;;15.75;9.18;;;;;;;3.91;72.08;98704.16;5026353;28;20415;-83
2023/12/06 07:36:43;;;;;;;12.48;7.72;;;;;;;3.97;72.12;98719.16;5005098;28;20053;-82
2023/12/06 07:39:28;;;;;;;22.35;12.23;;;;;;;4.15;72.08;98714.13;5013446;28;20049;-85
2023/12/06 07:42:15;;;;;;;13.32;7.60;;;;;;;4.14;71.79;98712.53;5014222;28;20065;-85
2023/12/06 07:45:02;;;;;;;39.35;17.80;;;;;;;4.16;71.56;98710.47;5013331;28;20077;-84
2023/12/06 07:47:48;;;;;;;11.18;5.82;;;;;;;4.13;71.54;98710.88;5011904;28;20045;-82
2023/12/06 07:50:33;;;;;;;56.13;23.48;;;;;;;4.04;71.25;98704.22;5012385;28;20044;-84
2023/12/06 07:53:19;;;;;;;23.65;11.63;;;;;;;3.99;71.44;98704.00;5025868;28;20052;-85
2023/12/06 07:56:06;;;;;;;33.08;15.15;;;;;;;4.02;72.03;98724.63;5012166;28;20057;-84
2023/12/06 07:58:56;;;;;;;11.48;7.15;;;;;;;3.81;71.90;98722.16;5012551;28;20523;-84
2023/12/06 08:01:43;;;;;;;17.70;9.20;;;;;;;3.74;72.49;98708.19;5011914;28;20053;-82
2023/12/06 08:04:29;;;;;;;15.10;7.88;;;;;;;3.72;72.48;98714.44;5017935;28;20048;-86
2023/12/06 08:07:14;;;;;;;17.73;10.07;;;;;;;3.67;72.48;98722.13;5003807;28;20412;-84
2023/12/06 08:10:00;;;;;;;17.08;10.02;;;;;;;3.71;73.33;98731.22;5012937;28;20387;-79
2023/12/06 08:12:45;;;;;;;10.35;6.90;;;;;;;3.80;72.93;98720.53;5011095;28;20076;-76
2023/12/06 08:15:32;;;;;;;15.52;9.15;;;;;;;3.75;72.79;98722.94;5019159;28;20064;-77
2023/12/06 08:18:18;;;;;;;23.15;10.65;;;;;;;3.88;73.27;98726.41;5012661;28;20056;-77
2023/12/06 08:21:07;;;;;;;24.58;12.85;;;;;;;3.80;73.50;98742.38;5011848;28;20049;-78
2023/12/06 08:23:53;;;;;;;23.05;12.32;;;;;;;3.92;73.26;98730.28;5012679;28;20057;-78
2023/12/06 08:26:41;;;;;;;21.85;11.57;;;;;;;3.86;72.48;98740.78;5012134;28;20057;-78
2023/12/06 08:29:27;;;;;;;26.38;14.57;;;;;;;3.93;73.72;98745.03;5017963;28;20057;-77
2023/12/06 08:32:13;;;;;;;24.23;12.73;;;;;;;3.75;72.71;98749.22;5018967;28;20048;-81
2023/12/06 08:34:58;;;;;;;20.52;10.48;;;;;;;3.55;73.12;98734.19;5013221;28;20052;-76
2023/12/06 08:37:46;;;;;;;20.70;10.90;;;;;;;3.57;73.30;98747.94;5012629;28;20045;-76
2023/12/06 08:40:32;;;;;;;36.03;19.20;;;;;;;3.65;73.70;98750.41;5018660;28;20060;-78
2023/12/06 08:43:17;;;;;;;23.80;11.93;;;;;;;3.71;72.92;98762.75;4997203;28;20057;-80
2023/12/06 08:46:02;;;;;;;30.13;14.75;;;;;;;3.78;72.92;98761.97;5011804;28;20052;-81
2023/12/06 08:48:50;;;;;;;26.40;12.73;;;;;;;3.82;73.36;98760.56;5012966;28;20045;-78
2023/12/06 08:51:34;;;;;;;53.00;28.65;;;;;;;3.57;74.75;98763.69;5013633;28;20056;-80
2023/12/06 08:54:20;;;;;;;73.10;38.60;;;;;;;3.56;75.16;98759.47;5013582;28;20069;-79
2023/12/06 08:57:07;;;;;;;73.40;34.70;;;;;;;3.48;76.37;98743.88;5019375;28;20068;-79
2023/12/06 08:59:53;;;;;;;56.80;30.83;;;;;;;3.58;75.43;98759.28;5013480;28;20053;-79
2023/12/06 09:02:40;;;;;;;59.22;32.15;;;;;;;3.52;75.98;98752.97;5013578;28;20056;-81
2023/12/06 09:05:25;;;;;;;43.75;23.48;;;;;;;3.66;75.09;98762.53;5012372;28;20064;-78
2023/12/06 09:08:11;;;;;;;66.45;35.95;;;;;;;3.68;75.27;98770.22;5026118;28;20053;-79
2023/12/06 09:10:57;;;;;;;50.10;28.23;;;;;;;3.66;75.73;98766.97;5018452;28;20510;-79
2023/12/06 09:13:42;;;;;;;42.85;23.52;;;;;;;3.59;77.43;98768.78;5013490;28;20053;-78
2023/12/06 09:16:29;;;;;;;53.65;24.35;;;;;;;3.56;77.52;98769.97;5013246;28;20057;-78
2023/12/06 09:19:16;;;;;;;44.22;25.15;;;;;;;3.60;77.75;98768.56;5021537;28;20052;-78
2023/12/06 09:22:03;;;;;;;33.78;20.20;;;;;;;3.74;77.83;98768.63;5016469;28;20048;-79
2023/12/06 09:24:49;;;;;;;14.00;8.93;;;;;;;3.81;75.64;98775.53;5016818;28;20053;-79
2023/12/06 09:27:34;;;;;;;24.60;13.32;;;;;;;3.89;76.05;98769.31;5016755;28;20057;-78
2023/12/06 09:30:21;;;;;;;17.67;9.13;;;;;;;3.92;75.57;98769.72;5016507;28;20057;-77
2023/12/06 09:33:07;;;;;;;22.38;14.15;;;;;;;3.92;76.05;98771.53;5016681;28;20111;-79
2023/12/06 09:35:52;;;;;;;18.58;10.68;;;;;;;3.89;75.82;98762.22;5016392;28;20499;-77
2023/12/06 09:38:37;;;;;;;25.88;14.23;;;;;;;3.85;76.68;98771.50;5015706;28;20053;-79
2023/12/06 09:41:29;;;;;;;21.23;12.15;;;;;;;3.78;77.43;98769.84;5015404;28;20056;-79
2023/12/06 09:44:17;;;;;;;23.65;12.27;;;;;;;3.74;78.01;98763.38;5016159;28;20041;-78
2023/12/06 09:47:02;;;;;;;15.13;7.88;;;;;;;3.61;77.48;98764.94;5015659;28;20057;-78
2023/12/06 09:49:49;;;;;;;16.98;7.90;;;;;;;3.56;77.61;98774.41;5015824;28;20427;-77
2023/12/06 09:52:35;;;;;;;10.98;6.75;;;;;;;3.56;78.22;98762.09;5015282;28;20053;-78
2023/12/06 09:55:26;;;;;;;29.15;13.57;;;;;;;3.64;78.91;98761.94;5015071;28;20077;-77
2023/12/06 09:58:12;;;;;;;25.70;11.60;;;;;;;3.68;78.25;98759.72;5015067;28;20053;-78
2023/12/06 10:00:58;;;;;;;26.83;14.00;;;;;;;3.83;79.54;98759.56;5016015;28;20053;-78
2023/12/06 10:03:46;;;;;;;22.05;12.32;;;;;;;3.91;79.33;98756.75;5015958;28;20053;-78
2023/12/06 10:06:32;;;;;;;23.17;11.15;;;;;;;3.93;78.25;98763.44;5015884;28;20060;-78
2023/12/06 10:09:17;;;;;;;21.42;12.07;;;;;;;3.86;77.31;98744.22;5014720;28;20391;-79
2023/12/06 10:12:05;;;;;;;20.52;11.63;;;;;;;3.90;77.76;98757.78;5015047;28;20045;-78
2023/12/06 10:14:58;;;;;;;17.90;8.10;;;;;;;3.95;77.45;98755.38;5015287;28;20133;-80
2023/12/06 10:17:42;;;;;;;18.73;8.95;;;;;;;4.09;77.64;98749.13;5020466;28;20092;-79
2023/12/06 10:20:29;;;;;;;27.27;13.60;;;;;;;4.26;77.41;98751.38;5014435;28;20129;-79
2023/12/06 10:23:15;;;;;;;19.05;10.07;;;;;;;4.13;75.90;98745.06;5013600;28;20048;-78
2023/12/06 10:26:03;;;;;;;23.45;12.55;;;;;;;4.26;77.44;98752.19;5014298;28;20060;-78
2023/12/06 10:28:49;;;;;;;29.00;16.33;;;;;;;4.26;76.74;98740.84;5012843;28;20061;-77
2023/12/06 10:31:45;;;;;;;15.13;7.85;;;;;;;4.17;76.37;98741.06;5013508;28;20053;-79
2023/12/06 10:34:31;;;;;;;29.50;17.15;;;;;;;4.17;76.98;98745.50;5014267;28;20048;-79
2023/12/06 10:37:19;;;;;;;26.33;15.05;;;;;;;4.18;77.36;98739.22;5014193;28;20061;-77
2023/12/06 10:40:12;;;;;;;37.97;18.42;;;;;;;4.21;78.33;98738.81;5013790;28;20068;-78
2023/12/06 10:43:07;;;;;;;39.33;19.88;;;;;;;4.24;77.37;98742.88;5012557;28;20056;-78
2023/12/06 10:45:53;;;;;;;30.00;16.55;;;;;;;4.25;77.23;98739.22;5012801;28;20045;-78
2023/12/06 10:48:38;;;;;;;47.03;25.17;;;;;;;4.23;77.41;98726.28;5013089;28;20057;-77
2023/12/06 10:51:24;;;;;;;26.40;16.33;;;;;;;4.08;78.15;98723.84;5014293;28;20056;-78
2023/12/06 10:54:11;;;;;;;30.65;18.05;;;;;;;4.25;79.26;98742.66;5013134;28;20395;-77
2023/12/06 10:56:58;;;;;;;37.83;20.17;;;;;;;4.27;78.46;98743.28;5013210;28;20053;-78
2023/12/06 10:59:45;;;;;;;36.58;19.63;;;;;;;4.34;77.45;98748.56;5012306;28;20060;-77
2023/12/06 11:02:31;;;;;;;46.38;22.52;;;;;;;4.13;79.25;98742.44;5013916;28;20053;-80
2023/12/06 11:05:18;;;;;;;40.00;23.13;;;;;;;4.11;79.59;98747.09;5012628;28;20056;-80
2023/12/06 11:08:23;;;;;;;162.07;63.53;;;;;;;4.02;80.06;98744.88;5012544;28;20045;-79
2023/12/06 11:11:35;;;;;;;111.15;49.42;;;;;;;3.95;80.47;98742.22;5019906;28;20060;-78
2023/12/06 11:14:37;;;;;;;65.45;35.30;;;;;;;3.86;81.03;98754.72;5013641;28;20076;-78
2023/12/06 11:17:28;;;;;;;62.67;33.58;;;;;;;3.70;81.70;98750.63;5013647;28;20048;-81
2023/12/06 11:20:13;;;;;;;57.90;31.55;;;;;;;3.83;81.88;98743.81;5013320;28;20057;-79
2023/12/06 11:23:00;;;;;;;57.33;29.65;;;;;;;3.68;82.06;98750.00;4999468;28;20057;-82
2023/12/06 11:25:48;;;;;;;63.65;30.98;;;;;;;3.47;83.54;98750.13;5012639;28;20399;-83
2023/12/06 11:28:39;;;;;;;47.13;23.90;;;;;;;3.37;84.23;98757.56;5013598;28;20045;-82
2023/12/06 11:31:35;;;;;;;21.85;10.25;;;;;;;3.06;84.98;98747.47;5013344;28;20048;-78
2023/12/06 11:34:36;;;;;;;49.17;25.65;;;;;;;3.08;85.22;98759.41;5011883;28;20061;-76
2023/12/06 11:37:22;;;;;;;69.22;30.83;;;;;;;3.13;85.52;98756.19;5019131;28;20078;-79
2023/12/06 11:40:20;;;;;;;59.83;29.88;;;;;;;3.12;86.54;98762.47;5011758;28;20053;-78
2023/12/06 11:43:07;;;;;;;50.45;25.23;;;;;;;3.00;86.60;98756.94;5012484;28;20070;-83
2023/12/06 11:46:01;;;;;;;47.25;22.88;;;;;;;2.92;86.88;98770.22;5013635;28;20064;-82
2023/12/06 11:48:49;;;;;;;23.27;12.63;;;;;;;2.84;86.51;98754.59;5012702;28;20526;-81
2023/12/06 11:51:35;;;;;;;47.42;21.98;;;;;;;2.80;87.34;98762.06;5018451;28;20052;-78
2023/12/06 11:54:20;;;;;;;50.38;28.08;;;;;;;2.83;86.83;98761.66;5018596;28;20064;-78
2023/12/06 11:57:07;;;;;;;63.88;34.80;;;;;;;2.80;87.24;98758.63;5011542;28;20048;-80
2023/12/06 11:59:53;;;;;;;46.30;24.33;;;;;;;2.77;87.09;98758.00;5020824;28;20052;-82
2023/12/06 12:02:39;;;;;;;58.13;30.63;;;;;;;2.71;88.07;98758.75;5026869;28;20057;-82
2023/12/06 12:05:24;;;;;;;70.35;33.30;;;;;;;2.73;87.82;98759.38;5020027;28;20106;-82
2023/12/06 12:08:11;;;;;;;75.63;33.42;;;;;;;2.70;88.57;98757.13;5021008;28;20474;-79
2023/12/06 12:10:57;;;;;;;71.90;35.95;;;;;;;2.73;88.89;98758.56;5019873;28;20049;-77
2023/12/06 12:13:42;;;;;;;59.08;31.45;;;;;;;2.78;88.99;98751.72;5020366;28;20510;-81
2023/12/06 12:16:28;;;;;;;65.75;33.55;;;;;;;2.87;88.93;98754.22;5013322;28;20060;-78
2023/12/06 12:19:13;;;;;;;53.05;27.80;;;;;;;2.82;89.52;98751.34;5012844;28;20060;-83
2023/12/06 12:22:03;;;;;;;79.75;38.42;;;;;;;2.93;88.80;98759.50;5011686;28;20057;-78
2023/12/06 12:24:51;;;;;;;72.32;37.67;;;;;;;2.90;89.30;98756.47;5012070;28;20510;-82
2023/12/06 12:27:36;;;;;;;72.03;35.30;;;;;;;2.86;88.89;98765.72;5011913;28;20045;-81
2023/12/06 12:30:22;;;;;;;71.50;37.97;;;;;;;2.89;88.77;98763.53;5012617;28;20065;-81
2023/12/06 12:33:07;;;;;;;67.05;35.05;;;;;;;2.87;89.40;98765.53;5011665;28;20052;-82
2023/12/06 12:35:54;;;;;;;79.72;38.83;;;;;;;2.90;88.96;98774.84;5012321;28;20495;-82
2023/12/06 12:38:41;;;;;;;86.78;40.63;;;;;;;2.92;88.99;98780.72;5018933;28;20503;-81
2023/12/06 12:41:27;;;;;;;74.25;36.72;;;;;;;2.80;88.87;98761.25;5012548;28;20045;-82
2023/12/06 12:44:12;;;;;;;53.22;27.95;;;;;;;2.76;88.90;98772.13;5010455;28;20522;-78
2023/12/06 12:46:57;;;;;;;52.83;26.27;;;;;;;2.76;88.65;98772.13;5010567;28;20521;-78
2023/12/06 12:49:43;;;;;;;78.65;38.17;;;;;;;2.75;88.75;98772.28;5010851;28;20045;-80
2023/12/06 12:52:33;;;;;;;72.63;38.72;;;;;;;2.77;89.06;98783.44;5012109;28;20057;-82
2023/12/06 12:55:18;;;;;;;55.75;31.63;;;;;;;2.69;88.86;98780.94;5016034;28;20065;-78
2023/12/06 12:58:04;;;;;;;67.75;32.83;;;;;;;2.76;89.35;98782.63;5015429;28;20057;-76